Time;durP1;ratioP1;P1;durP2;ratioP2;P2;SDS_P1;SDS_P2;PMS_P1;PMS_P2;Temp;Humidity;BMP_temperature;BMP_pressure;BME280_temperature;BME280_humidity;BME280_pressure;Samples;Min_cycle;Max_cycle;Signal;HPM_P1;HPM_P2
2023/08/01 00:00:33;;;;;;;4.82;2.40;;;;;;;18.36;100.00;99363.25;5071111;28;20020;-77
2023/08/01 00:03:01;;;;;;;4.68;2.60;;;;;;;18.38;100.00;99358.44;5071226;28;20039;-77
2023/08/01 00:05:32;;;;;;;6.30;2.45;;;;;;;18.38;100.00;99354.78;5087785;28;20028;-77
2023/08/01 00:07:58;;;;;;;4.50;2.30;;;;;;;18.34;100.00;99358.03;5072386;28;20377;-76
2023/08/01 00:10:24;;;;;;;4.60;2.28;;;;;;;18.32;100.00;99349.19;5073126;28;20107;-77
2023/08/01 00:12:50;;;;;;;4.93;2.42;;;;;;;18.30;100.00;99353.94;5073474;28;20028;-77
2023/08/01 00:15:15;;;;;;;2.47;1.80;;;;;;;18.29;100.00;99338.69;5073535;28;20024;-76
2023/08/01 00:17:40;;;;;;;4.53;2.13;;;;;;;18.30;100.00;99346.03;5072900;28;20119;-78
2023/08/01 00:20:07;;;;;;;3.03;2.40;;;;;;;18.31;100.00;99335.28;5077606;28;20025;-77
2023/08/01 00:22:34;;;;;;;4.38;2.08;;;;;;;18.28;100.00;99328.47;5077619;28;20017;-76
2023/08/01 00:25:00;;;;;;;3.03;2.22;;;;;;;18.23;100.00;99341.75;5076934;28;20036;-77
2023/08/01 00:27:25;;;;;;;2.97;2.08;;;;;;;18.18;100.00;99336.13;5077159;28;20550;-76
2023/08/01 00:29:52;;;;;;;4.00;1.90;;;;;;;18.12;100.00;99318.97;5092920;28;20028;-77
2023/08/01 00:32:19;;;;;;;1.85;1.65;;;;;;;18.12;100.00;99323.97;5077635;28;20016;-77
2023/08/01 00:34:44;;;;;;;3.55;2.03;;;;;;;18.09;100.00;99316.41;5077465;28;20039;-76
2023/08/01 00:37:18;;;;;;;5.05;2.45;;;;;;;18.09;100.00;99313.53;5075481;28;20477;-77
2023/08/01 00:39:45;;;;;;;4.45;2.20;;;;;;;18.04;100.00;99312.34;5077172;28;20028;-76
2023/08/01 00:42:11;;;;;;;3.72;2.15;;;;;;;18.03;100.00;99312.94;5077135;28;20484;-77
2023/08/01 00:44:41;;;;;;;4.78;2.17;;;;;;;18.04;100.00;99308.69;5076477;28;20367;-77
2023/08/01 00:47:07;;;;;;;3.92;2.38;;;;;;;18.01;100.00;99306.94;5077033;28;20044;-76
2023/08/01 00:49:33;;;;;;;6.00;2.53;;;;;;;17.99;100.00;99292.25;5075696;28;20102;-77
2023/08/01 00:51:58;;;;;;;3.58;2.10;;;;;;;18.01;100.00;99287.47;5076928;28;20070;-77
2023/08/01 00:54:25;;;;;;;3.17;1.98;;;;;;;18.03;100.00;99287.66;5092736;28;20535;-76
2023/08/01 00:56:52;;;;;;;4.25;2.30;;;;;;;18.03;100.00;99281.13;5076895;28;20024;-77
2023/08/01 00:59:17;;;;;;;5.88;2.53;;;;;;;18.03;100.00;99278.25;5092307;28;20079;-76
2023/08/01 01:01:43;;;;;;;5.93;2.97;;;;;;;18.02;100.00;99276.69;5076675;28;20105;-77
2023/08/01 01:04:10;;;;;;;5.03;2.25;;;;;;;18.00;100.00;99271.47;5076700;28;20024;-77
2023/08/01 01:07:04;;;;;;;4.32;2.08;;;;;;;18.03;100.00;99272.47;5076467;28;20078;-77
2023/08/01 01:09:35;;;;;;;8.65;2.35;;;;;;;18.01;100.00;99266.47;5069379;28;20047;-76
2023/08/01 01:12:04;;;;;;;5.90;2.53;;;;;;;17.99;100.00;99258.34;5076185;28;20025;-77
2023/08/01 01:14:30;;;;;;;4.15;1.98;;;;;;;17.98;100.00;99253.16;5058754;28;20416;-77
2023/08/01 01:16:57;;;;;;;3.38;2.10;;;;;;;17.96;100.00;99256.59;5076334;28;20025;-77
2023/08/01 01:19:31;;;;;;;3.67;2.10;;;;;;;17.96;100.00;99250.06;5076535;28;20012;-76
2023/08/01 01:21:56;;;;;;;4.75;2.33;;;;;;;17.91;100.00;99242.31;5074985;28;20449;-76
2023/08/01 01:24:22;;;;;;;2.08;1.88;;;;;;;17.87;100.00;99239.81;5091251;28;20040;-76
2023/08/01 01:26:49;;;;;;;4.70;2.17;;;;;;;17.82;100.00;99234.97;5075741;28;20547;-78
2023/08/01 01:29:15;;;;;;;5.38;1.95;;;;;;;17.77;100.00;99236.66;5075849;28;20111;-76
2023/08/01 01:31:52;;;;;;;5.13;2.33;;;;;;;17.77;100.00;99238.78;5073367;28;20021;-76
2023/08/01 01:34:18;;;;;;;4.53;2.05;;;;;;;17.71;100.00;99227.38;5075327;28;20470;-76
2023/08/01 01:36:43;;;;;;;3.20;2.10;;;;;;;17.64;100.00;99228.09;5073700;28;20038;-75
2023/08/01 01:39:08;;;;;;;3.88;2.10;;;;;;;17.59;100.00;99228.25;5074964;28;20020;-75
2023/08/01 01:41:34;;;;;;;4.13;2.03;;;;;;;17.55;100.00;99225.72;5075468;28;20037;-76
2023/08/01 01:43:59;;;;;;;4.28;1.95;;;;;;;17.53;100.00;99219.00;5076133;28;20024;-76
2023/08/01 01:46:26;;;;;;;3.78;2.00;;;;;;;17.48;100.00;99217.03;5074720;28;20519;-78
2023/08/01 01:48:54;;;;;;;4.43;2.22;;;;;;;17.44;100.00;99213.72;5074632;28;20031;-76
2023/08/01 01:51:21;;;;;;;5.25;2.17;;;;;;;17.40;100.00;99216.94;5073326;28;20013;-77
2023/08/01 01:53:50;;;;;;;4.72;1.88;;;;;;;17.37;100.00;99197.88;5073261;28;20035;-76
2023/08/01 01:56:16;;;;;;;3.58;2.20;;;;;;;17.38;100.00;99199.41;5090344;28;20036;-76
2023/08/01 01:58:51;;;;;;;2.85;1.90;;;;;;;17.42;100.00;99194.03;5074367;28;20044;-76
2023/08/01 02:01:18;;;;;;;3.33;1.92;;;;;;;17.37;100.00;99192.88;5075165;28;20017;-77
2023/08/01 02:03:44;;;;;;;4.63;1.80;;;;;;;17.46;100.00;99191.59;5075382;28;20017;-76
2023/08/01 02:06:10;;;;;;;6.57;2.97;;;;;;;17.49;100.00;99190.44;5075287;28;20035;-77
2023/08/01 02:08:36;;;;;;;21.15;2.58;;;;;;;17.52;100.00;99189.31;5075457;28;20474;-76
2023/08/01 02:11:03;;;;;;;2.72;2.00;;;;;;;17.57;100.00;99178.94;5075583;28;20155;-77
2023/08/01 02:13:30;;;;;;;5.68;2.22;;;;;;;17.61;100.00;99182.25;5075384;28;20474;-77
2023/08/01 02:15:56;;;;;;;7.10;2.13;;;;;;;17.66;100.00;99178.41;5074020;28;20028;-78
2023/08/01 02:18:21;;;;;;;3.53;1.90;;;;;;;17.70;100.00;99173.03;5074553;28;20508;-76
2023/08/01 02:20:47;;;;;;;3.63;2.10;;;;;;;17.71;100.00;99174.59;5075154;28;20024;-76
2023/08/01 02:23:13;;;;;;;9.68;2.63;;;;;;;17.71;100.00;99168.81;5073747;28;20102;-75
2023/08/01 02:25:42;;;;;;;4.28;1.90;;;;;;;17.75;100.00;99169.97;5075451;28;20021;-76
2023/08/01 02:28:08;;;;;;;6.25;2.42;;;;;;;17.74;100.00;99171.31;5090275;28;20020;-76
2023/08/01 02:30:35;;;;;;;7.78;2.00;;;;;;;17.76;100.00;99162.88;5074682;28;20090;-77
2023/08/01 02:33:01;;;;;;;4.30;1.85;;;;;;;17.76;100.00;99162.09;5056919;28;20032;-77
2023/08/01 02:35:29;;;;;;;2.72;1.67;;;;;;;17.80;100.00;99168.25;5074959;28;20327;-77
2023/08/01 02:37:56;;;;;;;2.95;2.00;;;;;;;17.79;100.00;99160.94;5091011;28;20041;-76
2023/08/01 02:40:22;;;;;;;5.90;2.25;;;;;;;17.86;100.00;99153.66;5074892;28;20103;-75
2023/08/01 02:42:47;;;;;;;2.92;2.17;;;;;;;17.91;100.00;99155.59;5090500;28;20172;-78
2023/08/01 02:45:14;;;;;;;2.67;1.67;;;;;;;17.95;100.00;99161.78;5090384;28;20468;-76
2023/08/01 02:47:45;;;;;;;5.15;2.20;;;;;;;17.92;100.00;99146.38;5074477;28;20040;-76
2023/08/01 02:50:11;;;;;;;2.83;1.90;;;;;;;17.95;100.00;99147.31;5074778;28;20029;-76
2023/08/01 02:52:37;;;;;;;3.58;2.05;;;;;;;17.85;100.00;99129.75;5074779;28;20016;-76
2023/08/01 02:55:05;;;;;;;3.42;1.90;;;;;;;17.95;100.00;99135.75;5074676;28;20047;-77
2023/08/01 02:57:31;;;;;;;3.78;1.83;;;;;;;17.93;100.00;99121.88;5074263;28;20075;-76
2023/08/01 02:59:59;;;;;;;3.45;2.10;;;;;;;18.01;100.00;99130.59;5074339;28;20035;-76
2023/08/01 03:02:25;;;;;;;2.83;1.95;;;;;;;18.03;100.00;99139.47;5089807;28;20024;-77
2023/08/01 03:04:51;;;;;;;3.60;2.00;;;;;;;17.99;100.00;99127.47;5072916;28;20179;-76
2023/08/01 03:07:17;;;;;;;5.10;2.05;;;;;;;18.02;100.00;99135.03;5090277;28;20378;-76
2023/08/01 03:09:44;;;;;;;4.70;2.10;;;;;;;17.97;100.00;99130.19;5074329;28;20031;-76
2023/08/01 03:12:09;;;;;;;3.38;1.85;;;;;;;17.96;100.00;99122.84;5074212;28;20017;-76
2023/08/01 03:14:35;;;;;;;3.72;2.10;;;;;;;17.92;100.00;99117.47;5074158;28;20032;-76
2023/08/01 03:17:00;;;;;;;2.33;1.75;;;;;;;17.88;100.00;99122.06;5073957;28;20106;-76
2023/08/01 03:19:26;;;;;;;4.07;2.10;;;;;;;17.80;100.00;99117.03;5074281;28;20064;-77
2023/08/01 03:21:53;;;;;;;5.10;2.03;;;;;;;17.81;100.00;99123.56;5089854;28;20020;-77
2023/08/01 03:24:18;;;;;;;4.93;1.88;;;;;;;17.77;100.00;99123.97;5074168;28;20024;-75
2023/08/01 03:26:44;;;;;;;4.45;2.40;;;;;;;17.76;100.00;99122.41;5072868;28;20031;-76
2023/08/01 03:29:10;;;;;;;7.13;2.40;;;;;;;17.71;100.00;99116.78;5073389;28;20048;-77
2023/08/01 03:31:44;;;;;;;6.22;2.33;;;;;;;17.72;100.00;99118.34;5073764;28;20033;-76
2023/08/01 03:34:10;;;;;;;5.28;1.85;;;;;;;17.69;100.00;99122.38;5074299;28;20151;-76
2023/08/01 03:36:37;;;;;;;3.58;1.90;;;;;;;17.65;100.00;99114.06;5073960;28;20032;-77
2023/08/01 03:39:04;;;;;;;7.10;2.30;;;;;;;17.65;100.00;99102.50;5073782;28;20021;-77
2023/08/01 03:41:29;;;;;;;4.07;2.50;;;;;;;17.66;100.00;99103.28;5089413;28;20033;-76
2023/08/01 03:43:56;;;;;;;3.40;2.45;;;;;;;17.67;100.00;99099.06;5073706;28;20079;-77
2023/08/01 03:46:22;;;;;;;2.67;2.15;;;;;;;17.68;100.00;99101.38;5073927;28;20106;-77
2023/08/01 03:48:56;;;;;;;4.05;2.10;;;;;;;17.69;100.00;99100.03;5073707;28;20105;-77
2023/08/01 03:51:21;;;;;;;4.25;2.35;;;;;;;17.69;100.00;99100.03;5073740;28;20547;-77
2023/08/01 03:53:48;;;;;;;5.53;2.10;;;;;;;17.67;100.00;99096.19;5073225;28;20024;-77
2023/08/01 03:56:14;;;;;;;5.70;2.28;;;;;;;17.66;100.00;99097.50;5072336;28;20457;-75
2023/08/01 03:58:40;;;;;;;5.00;2.40;;;;;;;17.68;100.00;99100.63;5073102;28;20080;-76
2023/08/01 04:01:08;;;;;;;6.47;2.58;;;;;;;17.64;100.00;99103.06;5071765;28;20432;-77
2023/08/01 04:03:34;;;;;;;4.72;3.20;;;;;;;17.63;100.00;99102.34;5072390;28;20082;-77
2023/08/01 04:06:00;;;;;;;5.80;2.03;;;;;;;17.61;100.00;99102.13;5073624;28;20124;-76
2023/08/01 04:08:27;;;;;;;6.78;2.30;;;;;;;17.59;100.00;99104.78;5073392;28;20067;-77
2023/08/01 04:10:54;;;;;;;3.47;2.00;;;;;;;17.59;100.00;99110.56;5073342;28;20067;-77
2023/08/01 04:13:20;;;;;;;4.40;2.65;;;;;;;17.56;100.00;99111.72;5072367;28;20126;-77
2023/08/01 04:15:47;;;;;;;3.10;2.47;;;;;;;17.54;100.00;99111.50;5072025;28;20021;-76
2023/08/01 04:18:14;;;;;;;5.38;2.35;;;;;;;17.46;100.00;99113.59;5071502;28;20101;-77
2023/08/01 04:20:40;;;;;;;4.70;2.70;;;;;;;17.44;100.00;99106.84;5073619;28;20024;-78
2023/08/01 04:23:05;;;;;;;5.85;2.85;;;;;;;17.35;100.00;99122.56;5073131;28;20032;-78
2023/08/01 04:25:31;;;;;;;5.05;2.30;;;;;;;17.28;100.00;99126.19;5072940;28;20036;-77
2023/08/01 04:27:57;;;;;;;3.83;3.10;;;;;;;17.23;100.00;99121.34;5071717;28;20060;-77
2023/08/01 04:30:24;;;;;;;5.35;3.20;;;;;;;17.16;100.00;99125.72;5073257;28;20485;-78
2023/08/01 04:32:49;;;;;;;8.88;3.00;;;;;;;17.18;100.00;99130.94;5073931;28;20044;-78
2023/08/01 04:35:15;;;;;;;6.72;3.08;;;;;;;17.13;100.00;99115.31;5072707;28;20028;-78
2023/08/01 04:37:42;;;;;;;5.03;3.20;;;;;;;17.16;100.00;99127.84;5074180;28;20043;-77
2023/08/01 04:40:08;;;;;;;4.18;3.10;;;;;;;17.13;100.00;99118.22;5088990;28;20036;-77
2023/08/01 04:42:33;;;;;;;7.00;2.85;;;;;;;17.17;100.00;99124.38;5071965;28;20066;-78
2023/08/01 04:45:00;;;;;;;3.95;3.00;;;;;;;17.21;100.00;99118.25;5073075;28;20524;-79
2023/08/01 04:47:35;;;;;;;6.53;3.10;;;;;;;17.21;100.00;99109.59;5073159;28;20028;-76
2023/08/01 04:50:01;;;;;;;5.25;2.78;;;;;;;17.14;100.00;99108.19;5073089;28;20119;-76
2023/08/01 04:52:27;;;;;;;4.18;3.30;;;;;;;17.16;100.00;99108.41;5071554;28;20458;-76
2023/08/01 04:54:53;;;;;;;5.95;2.88;;;;;;;17.11;100.00;99114.34;5071696;28;20031;-76
2023/08/01 04:57:19;;;;;;;5.53;3.20;;;;;;;17.09;100.00;99119.91;5073044;28;20104;-76
2023/08/01 04:59:46;;;;;;;5.50;3.08;;;;;;;17.07;100.00;99116.81;5071456;28;20021;-77
2023/08/01 05:02:13;;;;;;;7.93;3.53;;;;;;;17.09;100.00;99122.81;5073237;28;20044;-76
2023/08/01 05:04:39;;;;;;;9.38;3.47;;;;;;;17.09;100.00;99122.81;5090177;28;20024;-77
2023/08/01 05:07:06;;;;;;;6.70;3.42;;;;;;;17.05;100.00;99120.25;5076897;28;20056;-77
2023/08/01 05:09:33;;;;;;;5.40;3.67;;;;;;;17.02;100.00;99115.63;5076354;28;20032;-76
2023/08/01 05:12:01;;;;;;;4.53;2.78;;;;;;;17.03;100.00;99116.41;5072632;28;20041;-76
2023/08/01 05:14:26;;;;;;;5.22;3.10;;;;;;;17.03;100.00;99122.19;5076528;28;20028;-76
2023/08/01 05:16:53;;;;;;;7.95;3.33;;;;;;;17.04;100.00;99115.84;5076394;28;20370;-77
2023/08/01 05:19:19;;;;;;;6.95;3.58;;;;;;;17.06;100.00;99118.16;5076543;28;20024;-78
2023/08/01 05:21:46;;;;;;;7.78;3.38;;;;;;;17.02;100.00;99112.75;5075830;28;20040;-78
2023/08/01 05:24:12;;;;;;;11.18;3.03;;;;;;;17.04;100.00;99109.31;5076269;28;20036;-76
2023/08/01 05:26:37;;;;;;;4.95;3.03;;;;;;;16.98;100.00;99104.47;5076344;28;20040;-76
2023/08/01 05:29:04;;;;;;;8.40;3.92;;;;;;;17.01;100.00;99102.53;5076289;28;20028;-78
2023/08/01 05:31:29;;;;;;;4.03;2.88;;;;;;;17.04;100.00;99097.75;5076353;28;20028;-77
2023/08/01 05:33:56;;;;;;;4.93;3.42;;;;;;;17.01;100.00;99091.00;5076044;28;20031;-76
2023/08/01 05:36:22;;;;;;;6.93;3.42;;;;;;;16.95;100.00;99099.81;5076084;28;20063;-76
2023/08/01 05:38:48;;;;;;;5.68;3.45;;;;;;;16.83;100.00;99100.69;5076075;28;20035;-76
2023/08/01 05:41:15;;;;;;;6.72;4.22;;;;;;;16.80;100.00;99104.69;5076279;28;20523;-74
2023/08/01 05:43:41;;;;;;;9.65;4.30;;;;;;;16.72;100.00;99101.75;5076817;28;20115;-80
2023/08/01 05:46:07;;;;;;;10.20;4.03;;;;;;;16.64;100.00;99112.47;5075955;28;20330;-79
2023/08/01 05:48:33;;;;;;;7.40;3.88;;;;;;;16.61;100.00;99119.34;5090377;28;20473;-79
2023/08/01 05:50:58;;;;;;;6.05;3.30;;;;;;;16.50;100.00;99096.56;5068429;28;20377;-79
2023/08/01 05:53:24;;;;;;;4.82;3.58;;;;;;;16.58;100.00;99113.94;5090171;28;20107;-79
2023/08/01 05:55:49;;;;;;;6.72;4.00;;;;;;;16.50;100.00;99114.59;5072575;28;20123;-80
2023/08/01 05:58:16;;;;;;;10.23;3.95;;;;;;;16.45;100.00;99109.00;5073676;28;20127;-79
2023/08/01 06:00:48;;;;;;;6.10;3.33;;;;;;;16.35;100.00;99102.19;5074652;28;20021;-77
2023/08/01 06:03:13;;;;;;;;;;;;;;;16.41;100.00;99109.34;5072107;28;20401;-78
2023/08/01 06:05:39;;;;;;;7.80;4.43;;;;;;;16.32;100.00;99103.28;5066240;28;19913;-78
2023/08/01 06:08:06;;;;;;;13.93;4.40;;;;;;;16.39;100.00;99111.25;5049086;28;20283;-79
2023/08/01 06:10:37;;;;;;;7.22;3.83;;;;;;;16.41;100.00;99108.56;5090633;28;20032;-79
2023/08/01 06:13:03;;;;;;;7.13;3.65;;;;;;;16.47;100.00;99100.56;5091287;28;20028;-77
2023/08/01 06:15:30;;;;;;;6.97;4.03;;;;;;;16.60;100.00;99105.50;5090464;28;20044;-77
2023/08/01 06:17:57;;;;;;;8.52;3.25;;;;;;;16.67;100.00;99108.44;5075139;28;20454;-78
2023/08/01 06:20:23;;;;;;;10.13;4.65;;;;;;;16.66;100.00;99092.47;5075089;28;20111;-77
2023/08/01 06:22:50;;;;;;;4.93;3.45;;;;;;;16.60;100.00;99073.78;5091152;28;20051;-79
2023/08/01 06:25:17;;;;;;;9.13;3.88;;;;;;;16.68;100.00;99089.03;5075510;28;20366;-78
2023/08/01 06:27:46;;;;;;;6.72;3.40;;;;;;;16.72;100.00;99092.31;5070865;28;20733;-81
2023/08/01 06:30:11;;;;;;;8.15;3.55;;;;;;;16.74;100.00;99090.44;5072227;28;20453;-81
2023/08/01 06:32:49;;;;;;;6.18;3.80;;;;;;;16.78;100.00;99087.97;5074171;28;20034;-81
2023/08/01 06:35:23;;;;;;;9.25;3.70;;;;;;;16.80;100.00;99078.72;5075653;28;20450;-82
2023/08/01 06:37:49;;;;;;;8.88;3.85;;;;;;;16.79;100.00;99077.19;5073508;28;20070;-80
2023/08/01 06:40:17;;;;;;;6.82;3.17;;;;;;;16.82;100.00;99073.16;5073654;28;20431;-80
2023/08/01 06:42:43;;;;;;;7.00;3.97;;;;;;;16.84;100.00;99065.50;5070379;28;20474;-78
2023/08/01 06:45:08;;;;;;;12.68;4.45;;;;;;;16.85;100.00;99055.47;5060607;28;20104;-82
2023/08/01 06:47:36;;;;;;;6.10;3.40;;;;;;;16.92;100.00;99066.31;5055237;28;20034;-80
2023/08/01 06:50:02;;;;;;;7.25;3.70;;;;;;;16.96;100.00;99055.16;5057246;28;20035;-77
2023/08/01 06:52:30;;;;;;;6.30;3.60;;;;;;;16.89;100.00;99053.03;5074179;28;20025;-76
2023/08/01 06:54:55;;;;;;;10.00;3.67;;;;;;;16.91;100.00;99061.09;5071916;28;20085;-79
2023/08/01 06:57:30;;;;;;;8.48;3.97;;;;;;;16.80;100.00;99050.63;5060977;28;20037;-80
2023/08/01 06:59:56;;;;;;;7.95;4.35;;;;;;;16.74;100.00;99057.94;5053646;28;20041;-80
2023/08/01 07:02:25;;;;;;;16.02;4.97;;;;;;;16.76;100.00;99063.88;5054781;28;20052;-79
2023/08/01 07:04:54;;;;;;;5.80;3.90;;;;;;;16.80;100.00;99056.41;5054977;28;20023;-80
2023/08/01 07:07:27;;;;;;;8.80;4.20;;;;;;;16.91;100.00;99064.75;5054620;28;20028;-77
2023/08/01 07:09:55;;;;;;;10.32;4.22;;;;;;;16.89;100.00;99047.25;5053113;28;20067;-82
2023/08/01 07:12:21;;;;;;;6.82;3.80;;;;;;;16.96;100.00;99057.28;5054439;28;20167;-77
2023/08/01 07:14:55;;;;;;;6.30;3.33;;;;;;;17.06;100.00;99060.41;5053059;28;20473;-79
2023/08/01 07:17:20;;;;;;;6.75;3.88;;;;;;;17.10;100.00;99043.50;5061844;28;20040;-75
2023/08/01 07:19:47;;;;;;;5.32;3.38;;;;;;;17.19;100.00;99043.00;5074179;28;20021;-77
2023/08/01 07:22:13;;;;;;;6.97;3.55;;;;;;;17.28;100.00;99040.34;5073762;28;20043;-77
2023/08/01 07:24:39;;;;;;;6.47;3.42;;;;;;;17.35;100.00;99033.81;5074021;28;20025;-76
2023/08/01 07:27:07;;;;;;;9.43;3.92;;;;;;;17.39;100.00;99030.53;5073415;28;20448;-76
2023/08/01 07:29:33;;;;;;;5.75;3.45;;;;;;;17.40;100.00;99032.09;5074264;28;20028;-76
2023/08/01 07:32:01;;;;;;;5.22;3.92;;;;;;;17.29;100.00;99026.69;5072831;28;20090;-76
2023/08/01 07:34:26;;;;;;;7.28;3.47;;;;;;;17.44;100.00;99035.41;5073095;28;20103;-79
2023/08/01 07:36:52;;;;;;;6.20;3.28;;;;;;;17.48;100.00;99030.06;5072925;28;20537;-78
2023/08/01 07:39:18;;;;;;;8.32;3.88;;;;;;;17.61;100.00;99032.78;5072378;28;20094;-80
2023/08/01 07:41:59;;;;;;;14.65;4.78;;;;;;;17.60;100.00;99019.69;5073339;28;20023;-79
2023/08/01 07:44:25;;;;;;;10.88;3.45;;;;;;;17.83;100.00;99029.16;5072722;28;20047;-75
2023/08/01 07:46:57;;;;;;;6.70;4.05;;;;;;;17.93;100.00;99019.94;5073888;28;20036;-81
2023/08/01 07:49:22;;;;;;;7.15;3.28;;;;;;;18.00;100.00;99017.06;5075495;28;20031;-80
2023/08/01 07:51:48;;;;;;;11.70;4.13;;;;;;;18.11;100.00;99007.25;5071375;28;20025;-79
2023/08/01 07:54:13;;;;;;;5.30;3.17;;;;;;;18.14;100.00;99001.06;5069967;28;20032;-81
2023/08/01 07:56:39;;;;;;;6.35;3.05;;;;;;;18.26;100.00;99001.47;5071619;28;20051;-79
2023/08/01 07:59:05;;;;;;;4.10;3.10;;;;;;;18.39;100.00;98989.72;5071837;28;20067;-77
2023/08/01 08:01:32;;;;;;;6.32;3.15;;;;;;;18.46;100.00;98985.28;5073708;28;20024;-77
2023/08/01 08:04:00;;;;;;;6.43;3.17;;;;;;;18.60;100.00;98987.38;5074200;28;20024;-80
2023/08/01 08:06:25;;;;;;;5.90;3.08;;;;;;;18.65;100.00;98982.75;5073671;28;20024;-77
2023/08/01 08:08:52;;;;;;;6.10;3.08;;;;;;;18.66;100.00;98981.41;5073200;28;20458;-75
2023/08/01 08:11:19;;;;;;;6.03;3.35;;;;;;;18.66;100.00;98967.69;5071794;28;20166;-74
2023/08/01 08:13:46;;;;;;;5.35;3.30;;;;;;;18.65;100.00;98969.03;5073796;28;20493;-76
2023/08/01 08:16:12;;;;;;;9.68;3.20;;;;;;;18.55;100.00;98970.22;5073775;28;20036;-77
2023/08/01 08:18:38;;;;;;;7.57;3.10;;;;;;;18.44;100.00;98959.81;5089129;28;20058;-74
2023/08/01 08:21:11;;;;;;;5.88;3.63;;;;;;;18.39;100.00;98955.00;5073094;28;20036;-76
2023/08/01 08:23:38;;;;;;;8.48;3.33;;;;;;;18.42;100.00;98950.97;5072122;28;20082;-77
2023/08/01 08:26:04;;;;;;;5.63;3.17;;;;;;;18.50;100.00;98953.84;5072646;28;20040;-77
2023/08/01 08:28:33;;;;;;;8.13;3.85;;;;;;;18.68;100.00;98949.72;5071922;28;20082;-77
2023/08/01 08:30:59;;;;;;;8.35;3.80;;;;;;;18.83;100.00;98961.28;5072108;28;20037;-78
2023/08/01 08:33:24;;;;;;;4.40;3.22;;;;;;;18.90;100.00;98942.34;5089168;28;20362;-77
2023/08/01 08:35:52;;;;;;;6.07;3.38;;;;;;;18.86;100.00;98948.53;5088829;28;20059;-77
2023/08/01 08:38:20;;;;;;;7.97;4.18;;;;;;;18.67;100.00;98934.50;5073092;28;20086;-85
2023/08/01 08:41:08;;;;;;;8.82;3.28;;;;;;;18.56;100.00;98937.81;5065291;28;20386;-84
2023/08/01 08:43:35;;;;;;;6.30;3.72;;;;;;;18.38;100.00;98935.31;5056449;28;20025;-85
2023/08/01 08:46:03;;;;;;;9.20;4.03;;;;;;;18.24;100.00;98941.31;5039322;28;20037;-82
2023/08/01 08:48:30;;;;;;;7.97;3.85;;;;;;;18.24;100.00;98944.19;5061357;28;20057;-84
2023/08/01 08:51:01;;;;;;;7.30;3.10;;;;;;;18.28;100.00;98943.78;5060910;28;20074;-77
2023/08/01 08:53:27;;;;;;;4.65;3.20;;;;;;;18.26;100.00;98940.72;5084864;28;20052;-80
2023/08/01 08:55:53;;;;;;;5.43;3.15;;;;;;;18.25;100.00;98939.19;5095457;28;20388;-75
2023/08/01 08:58:19;;;;;;;4.00;2.92;;;;;;;18.20;100.00;98937.25;5096227;28;20184;-77
2023/08/01 09:00:46;;;;;;;5.38;3.30;;;;;;;18.20;100.00;98925.69;5095271;28;20107;-80
2023/08/01 09:03:14;;;;;;;5.50;3.53;;;;;;;18.22;100.00;98923.00;5096386;28;20032;-82
2023/08/01 09:05:54;;;;;;;4.68;2.95;;;;;;;18.20;100.00;98929.34;5067495;28;20082;-81
2023/08/01 09:08:21;;;;;;;5.32;3.50;;;;;;;18.33;100.00;98916.81;5070956;28;20114;-75
2023/08/01 09:10:48;;;;;;;7.88;3.08;;;;;;;18.38;100.00;98920.88;5074578;28;20082;-75
2023/08/01 09:13:14;;;;;;;6.55;3.05;;;;;;;18.47;100.00;98912.38;5055976;28;20041;-84
2023/08/01 09:15:43;;;;;;;7.93;3.15;;;;;;;18.60;100.00;98917.94;5041084;28;20438;-80
2023/08/01 09:18:10;;;;;;;5.38;3.67;;;;;;;18.61;100.00;98918.72;5074803;28;20489;-81
2023/08/01 09:20:49;;;;;;;6.38;2.50;;;;;;;18.68;100.00;98924.47;5058189;28;20477;-81
2023/08/01 09:23:16;;;;;;;8.57;3.13;;;;;;;18.64;100.00;98923.31;5083995;28;20047;-80
2023/08/01 09:25:44;;;;;;;4.22;3.13;;;;;;;18.64;100.00;98924.09;5096248;28;20028;-85
2023/08/01 09:28:21;;;;;;;4.20;2.50;;;;;;;18.61;100.00;98925.28;5111862;28;20058;-75
2023/08/01 09:30:55;;;;;;;4.82;2.55;;;;;;;18.60;100.00;98914.28;5112053;28;20035;-76
2023/08/01 09:33:22;;;;;;;6.10;3.05;;;;;;;18.60;100.00;98923.72;5095602;28;20032;-74
2023/08/01 09:35:51;;;;;;;8.20;3.30;;;;;;;18.53;100.00;98917.94;5068870;28;20054;-78
2023/08/01 09:38:18;;;;;;;5.18;3.33;;;;;;;18.53;100.00;98915.81;5056594;28;20048;-76
2023/08/01 09:40:45;;;;;;;3.72;2.83;;;;;;;18.63;100.00;98918.88;5054594;28;20048;-77
2023/08/01 09:43:13;;;;;;;5.85;3.35;;;;;;;18.69;100.00;98910.75;5023720;28;20052;-77
2023/08/01 09:46:00;;;;;;;5.38;3.05;;;;;;;18.73;100.00;98907.47;5060478;28;20029;-78
2023/08/01 09:48:32;;;;;;;6.15;3.20;;;;;;;18.78;100.00;98897.78;5054996;28;20466;-76
2023/08/01 09:51:19;;;;;;;4.30;3.20;;;;;;;18.79;100.00;98896.44;5054326;28;20086;-75
2023/08/01 09:53:54;;;;;;;6.07;3.25;;;;;;;18.73;100.00;98881.41;5079641;28;20036;-76
2023/08/01 09:56:24;;;;;;;3.92;2.28;;;;;;;18.78;100.00;98883.31;5095389;28;20094;-76
2023/08/01 09:58:59;;;;;;;4.65;2.92;;;;;;;18.94;100.00;98887.69;5076911;28;20056;-74
2023/08/01 10:01:25;;;;;;;6.18;2.70;;;;;;;19.05;100.00;98890.94;5077143;28;20032;-75
2023/08/01 10:04:05;;;;;;;11.18;3.05;;;;;;;19.12;100.00;98877.75;5111080;28;20366;-75
2023/08/01 10:06:33;;;;;;;4.03;2.63;;;;;;;19.21;100.00;98876.41;5077226;28;20533;-74
2023/08/01 10:08:59;;;;;;;4.45;2.80;;;;;;;19.34;100.00;98876.13;5089328;28;20512;-75
2023/08/01 10:11:30;;;;;;;9.40;2.90;;;;;;;19.45;100.00;98867.75;5059956;28;20029;-75
2023/08/01 10:13:56;;;;;;;6.15;2.72;;;;;;;19.67;100.00;98862.34;5055360;28;20059;-74
2023/08/01 10:16:28;;;;;;;4.38;3.05;;;;;;;19.91;100.00;98853.63;5053678;28;20108;-75
2023/08/01 10:18:54;;;;;;;6.80;2.67;;;;;;;20.16;100.00;98847.03;5053944;28;20043;-75
2023/08/01 10:21:32;;;;;;;4.28;2.92;;;;;;;20.44;100.00;98855.25;5090280;28;20037;-75
2023/08/01 10:23:59;;;;;;;4.70;2.80;;;;;;;20.67;100.00;98852.09;5091938;28;20028;-75
2023/08/01 10:26:24;;;;;;;5.15;2.83;;;;;;;20.82;100.00;98840.31;5073085;28;20060;-73
2023/08/01 10:28:52;;;;;;;3.65;2.08;;;;;;;21.01;100.00;98852.06;5056557;28;20500;-75
2023/08/01 10:31:24;;;;;;;4.93;2.25;;;;;;;20.97;100.00;98848.81;5073133;28;20033;-73
2023/08/01 10:33:52;;;;;;;6.45;3.10;;;;;;;20.92;100.00;98838.25;5072050;28;20048;-73
2023/08/01 10:36:27;;;;;;;8.20;2.55;;;;;;;20.89;100.00;98829.97;5090521;28;20059;-75
2023/08/01 10:38:55;;;;;;;4.13;2.80;;;;;;;20.87;100.00;98835.59;5073692;28;20377;-74
2023/08/01 10:41:25;;;;;;;5.38;2.67;;;;;;;20.85;100.00;98833.28;5075177;28;20036;-75
2023/08/01 10:43:50;;;;;;;5.93;3.03;;;;;;;20.86;100.00;98823.22;5073396;28;20056;-76
2023/08/01 10:46:17;;;;;;;6.03;2.45;;;;;;;20.89;100.00;98824.94;5073751;28;20493;-76
2023/08/01 10:48:54;;;;;;;6.03;2.47;;;;;;;20.80;100.00;98820.56;5090813;28;20051;-75
2023/08/01 10:51:21;;;;;;;4.63;2.85;;;;;;;20.82;100.00;98831.59;5074530;28;20047;-73
2023/08/01 10:53:48;;;;;;;5.40;2.72;;;;;;;20.78;100.00;98832.03;5073669;28;20079;-73
2023/08/01 10:56:18;;;;;;;4.93;2.67;;;;;;;20.75;100.00;98841.16;5090171;28;20093;-75
2023/08/01 10:58:45;;;;;;;4.35;3.03;;;;;;;20.57;100.00;98833.81;5089659;28;20071;-78
2023/08/01 11:01:11;;;;;;;5.32;2.50;;;;;;;20.40;100.00;98846.19;5073484;28;20032;-76
2023/08/01 11:03:37;;;;;;;5.05;2.85;;;;;;;20.21;100.00;98829.38;5075999;28;20467;-77
2023/08/01 11:06:04;;;;;;;5.38;3.03;;;;;;;20.06;100.00;98835.34;5068862;28;20094;-73
2023/08/01 11:08:56;;;;;;;6.20;2.45;;;;;;;19.91;100.00;98830.44;5066355;28;20074;-74
2023/08/01 11:11:25;;;;;;;3.45;2.35;;;;;;;19.76;100.00;98826.91;5082862;28;20036;-74
2023/08/01 11:13:56;;;;;;;4.60;2.50;;;;;;;19.64;100.00;98826.63;5069178;28;20024;-74
2023/08/01 11:16:22;;;;;;;3.80;2.55;;;;;;;19.48;100.00;98828.88;5064973;28;20033;-75
2023/08/01 11:18:49;;;;;;;3.72;1.92;;;;;;;19.38;100.00;98819.31;5051993;28;20093;-74
2023/08/01 11:21:25;;;;;;;4.60;2.83;;;;;;;19.31;100.00;98820.16;5066581;28;20039;-74
2023/08/01 11:23:51;;;;;;;2.97;1.95;;;;;;;19.25;100.00;98816.69;5033724;28;20060;-74
2023/08/01 11:26:18;;;;;;;5.97;2.10;;;;;;;19.21;100.00;98816.34;5066091;28;20107;-76